Time;durP1;ratioP1;P1;durP2;ratioP2;P2;SDS_P1;SDS_P2;PMS_P1;PMS_P2;Temp;Humidity;BMP_temperature;BMP_pressure;BME280_temperature;BME280_humidity;BME280_pressure;Samples;Min_cycle;Max_cycle;Signal;HPM_P1;HPM_P2
2022/11/14 00:00:48;;;;;;;23.43;16.53;;;;;;;8.69;56.85;102444.22;5016712;28;20384;-78
2022/11/14 00:03:14;;;;;;;23.60;17.15;;;;;;;8.73;56.12;102443.03;5031691;28;20420;-78
2022/11/14 00:05:44;;;;;;;23.57;17.80;;;;;;;8.68;56.36;102448.69;5016298;28;20399;-78
2022/11/14 00:08:22;;;;;;;24.98;18.00;;;;;;;8.72;56.16;102444.84;5016516;28;20400;-78
2022/11/14 00:10:49;;;;;;;24.88;18.08;;;;;;;8.65;56.08;102450.72;5018520;28;20448;-78
2022/11/14 00:13:15;;;;;;;28.35;18.25;;;;;;;8.63;56.56;102448.19;5024436;28;20727;-79
2022/11/14 00:15:41;;;;;;;25.55;18.40;;;;;;;8.60;56.55;102454.53;5023345;28;20388;-78
2022/11/14 00:18:07;;;;;;;25.47;18.30;;;;;;;8.55;56.44;102454.03;5013775;28;20471;-77
2022/11/14 00:20:32;;;;;;;23.33;17.03;;;;;;;8.48;56.75;102452.81;5013806;28;20407;-77
2022/11/14 00:22:58;;;;;;;22.88;16.45;;;;;;;8.35;56.86;102457.25;5013569;28;20383;-77
2022/11/14 00:25:23;;;;;;;24.27;17.03;;;;;;;8.38;56.53;102443.84;5012131;28;20369;-78
2022/11/14 00:27:49;;;;;;;23.23;16.33;;;;;;;8.45;56.89;102454.84;5015097;28;20411;-78
2022/11/14 00:30:14;;;;;;;23.45;17.50;;;;;;;8.48;56.17;102444.00;5014989;28;20740;-78
2022/11/14 00:32:40;;;;;;;25.88;16.60;;;;;;;8.43;56.65;102447.00;5014425;28;20374;-77
2022/11/14 00:35:07;;;;;;;24.33;17.30;;;;;;;8.38;56.59;102441.19;5016311;28;20443;-78
2022/11/14 00:37:33;;;;;;;24.40;17.23;;;;;;;8.30;56.81;102432.97;5034935;28;20378;-77
2022/11/14 00:39:59;;;;;;;21.83;16.60;;;;;;;8.15;57.05;102435.78;5023973;28;20396;-78
2022/11/14 00:42:24;;;;;;;24.20;17.17;;;;;;;8.21;56.96;102434.47;5015467;28;20379;-78
2022/11/14 00:44:50;;;;;;;24.38;17.70;;;;;;;8.21;57.15;102426.56;5015346;28;20410;-78
2022/11/14 00:47:15;;;;;;;22.03;17.63;;;;;;;8.13;57.05;102421.00;5014626;28;20400;-78
2022/11/14 00:49:41;;;;;;;26.93;17.33;;;;;;;8.17;57.28;102425.09;5033787;28;20412;-78
2022/11/14 00:52:06;;;;;;;24.67;18.23;;;;;;;8.20;57.40;102424.88;5034148;28;20708;-78
2022/11/14 00:54:32;;;;;;;25.80;17.23;;;;;;;8.13;57.26;102421.84;5013971;28;20384;-77
2022/11/14 00:56:57;;;;;;;22.73;16.83;;;;;;;8.12;57.13;102420.19;5015813;28;20454;-78
2022/11/14 00:59:22;;;;;;;23.10;16.10;;;;;;;8.19;57.04;102426.69;5012961;28;20440;-77
2022/11/14 01:01:48;;;;;;;21.50;16.10;;;;;;;8.22;56.88;102420.34;5015600;28;20745;-79
2022/11/14 01:04:13;;;;;;;21.63;16.07;;;;;;;8.20;56.82;102416.97;5015867;28;20943;-79
2022/11/14 01:06:39;;;;;;;20.55;15.00;;;;;;;8.01;57.00;102409.53;5015107;28;20399;-79
2022/11/14 01:09:04;;;;;;;21.30;15.17;;;;;;;7.95;57.20;102405.53;5016174;28;20396;-79
2022/11/14 01:11:30;;;;;;;21.13;15.50;;;;;;;8.00;57.16;102413.97;5015011;28;20408;-79
2022/11/14 01:13:55;;;;;;;20.73;14.93;;;;;;;8.02;56.62;102408.59;5015366;28;20376;-79
2022/11/14 01:16:21;;;;;;;19.47;14.47;;;;;;;7.98;57.16;102405.31;5015954;28;20522;-79
2022/11/14 01:18:46;;;;;;;20.33;15.20;;;;;;;7.94;56.96;102403.00;5015133;28;20729;-79
2022/11/14 01:21:13;;;;;;;22.73;15.10;;;;;;;7.88;57.25;102404.28;5015840;28;20453;-78
2022/11/14 01:23:39;;;;;;;21.95;14.85;;;;;;;7.82;57.09;102404.75;5014509;28;20387;-79
2022/11/14 01:26:08;;;;;;;21.75;15.07;;;;;;;7.73;57.48;102400.13;5015979;28;20390;-78
2022/11/14 01:28:34;;;;;;;28.25;19.05;;;;;;;7.75;57.57;102399.06;5016246;28;20400;-79
2022/11/14 01:31:17;;;;;;;32.70;22.07;;;;;;;7.91;57.09;102403.25;5017813;28;20384;-79
2022/11/14 01:33:43;;;;;;;24.45;17.33;;;;;;;7.97;56.96;102397.50;5017559;28;20372;-79
2022/11/14 01:36:09;;;;;;;26.25;17.60;;;;;;;7.94;57.09;102395.94;5016768;28;20406;-79
2022/11/14 01:38:36;;;;;;;20.70;15.85;;;;;;;7.82;57.19;102396.81;5017467;28;20394;-79
2022/11/14 01:41:02;;;;;;;26.23;17.13;;;;;;;7.78;57.85;102395.38;5015461;28;20384;-78
2022/11/14 01:43:33;;;;;;;23.45;16.00;;;;;;;7.78;57.39;102392.72;5018474;28;20406;-78
2022/11/14 01:46:26;;;;;;;25.40;16.92;;;;;;;7.72;57.54;102398.44;5015991;28;20406;-78
2022/11/14 01:49:10;;;;;;;24.20;18.38;;;;;;;7.56;57.73;102386.34;5015800;28;20939;-79
2022/11/14 01:51:42;;;;;;;24.85;17.83;;;;;;;7.57;58.07;102385.38;5002504;28;20450;-79
2022/11/14 01:54:17;;;;;;;24.10;17.00;;;;;;;7.53;58.05;102391.00;5016088;28;20510;-78
2022/11/14 01:56:47;;;;;;;23.33;16.57;;;;;;;7.49;58.49;102390.38;5016124;28;20450;-78
2022/11/14 01:59:19;;;;;;;24.67;17.70;;;;;;;7.42;58.57;102378.56;5005954;28;20869;-78
2022/11/14 02:01:50;;;;;;;24.40;16.90;;;;;;;7.48;58.24;102386.03;5012063;28;20885;-79
2022/11/14 02:04:36;;;;;;;25.00;16.40;;;;;;;7.47;58.17;102385.19;5015660;28;20387;-79
2022/11/14 02:07:05;;;;;;;23.23;15.80;;;;;;;7.39;58.72;102382.25;5015218;28;20884;-79
2022/11/14 02:09:39;;;;;;;23.35;15.10;;;;;;;7.35;58.44;102386.06;5013786;28;20431;-79
2022/11/14 02:12:08;;;;;;;19.42;14.05;;;;;;;7.37;58.47;102383.31;5023814;28;20397;-79
2022/11/14 02:14:36;;;;;;;20.63;14.60;;;;;;;7.43;58.00;102378.44;5018524;28;20381;-79
2022/11/14 02:17:02;;;;;;;20.70;14.50;;;;;;;7.40;58.19;102388.34;5015137;28;20833;-78
2022/11/14 02:19:51;;;;;;;19.45;13.43;;;;;;;7.34;58.46;102380.88;5013338;28;20408;-78
2022/11/14 02:22:16;;;;;;;26.90;18.98;;;;;;;7.28;58.76;102380.34;5002780;28;20375;-78
2022/11/14 02:24:43;;;;;;;25.47;16.60;;;;;;;7.33;58.81;102382.69;5015221;28;20381;-77
2022/11/14 02:27:10;;;;;;;24.85;16.98;;;;;;;7.34;58.68;102387.00;5014083;28;20465;-78
2022/11/14 02:29:36;;;;;;;18.13;14.17;;;;;;;7.36;58.74;102389.53;5012678;28;20457;-77
2022/11/14 02:32:02;;;;;;;26.35;18.25;;;;;;;7.34;58.96;102387.00;5013175;28;20415;-78
2022/11/14 02:34:28;;;;;;;20.55;15.02;;;;;;;7.38;58.79;102391.13;5015617;28;20802;-78
2022/11/14 02:36:54;;;;;;;21.73;15.88;;;;;;;7.28;58.99;102385.63;5013953;28;20416;-77
2022/11/14 02:39:19;;;;;;;19.05;14.10;;;;;;;7.27;59.15;102380.47;5015022;28;20379;-79
2022/11/14 02:41:45;;;;;;;18.30;13.73;;;;;;;7.18;59.39;102378.47;5015821;28;20387;-78
2022/11/14 02:44:10;;;;;;;20.00;13.80;;;;;;;7.27;58.93;102381.31;5015025;28;20391;-79
2022/11/14 02:46:36;;;;;;;17.27;13.43;;;;;;;7.30;59.03;102379.41;5014835;28;20871;-78
2022/11/14 02:49:01;;;;;;;18.77;13.53;;;;;;;7.24;59.09;102373.63;5014521;28;20841;-79
2022/11/14 02:51:27;;;;;;;18.33;13.52;;;;;;;7.30;59.13;102382.88;5014255;28;20383;-79
2022/11/14 02:53:52;;;;;;;19.13;13.67;;;;;;;7.44;58.37;102377.47;5019659;28;20391;-77
2022/11/14 02:56:18;;;;;;;19.33;14.10;;;;;;;7.45;58.41;102370.41;5023022;28;20384;-77
2022/11/14 02:58:43;;;;;;;18.57;13.37;;;;;;;7.52;58.31;102381.38;5025014;28;20454;-77
2022/11/14 03:01:09;;;;;;;20.80;15.57;;;;;;;7.51;58.24;102377.03;5022311;28;20695;-78
2022/11/14 03:03:34;;;;;;;19.43;13.73;;;;;;;7.53;57.91;102380.44;5015489;28;20415;-79
2022/11/14 03:06:01;;;;;;;17.17;12.60;;;;;;;7.49;58.01;102379.81;5014105;28;20395;-79
2022/11/14 03:08:26;;;;;;;17.88;13.45;;;;;;;7.38;58.14;102387.63;5013940;28;20908;-79
2022/11/14 03:10:52;;;;;;;19.42;12.73;;;;;;;7.25;58.26;102388.47;5013400;28;20403;-79
2022/11/14 03:13:18;;;;;;;16.80;12.43;;;;;;;7.04;58.38;102392.59;5013878;28;20372;-79
2022/11/14 03:15:43;;;;;;;18.48;12.95;;;;;;;6.93;58.63;102381.94;5012490;28;20392;-79
2022/11/14 03:18:09;;;;;;;17.97;12.80;;;;;;;6.82;58.73;102380.88;5013889;28;20471;-79
2022/11/14 03:20:35;;;;;;;18.38;13.00;;;;;;;6.77;58.52;102379.50;5014062;28;20384;-78
2022/11/14 03:23:00;;;;;;;17.27;13.03;;;;;;;6.74;58.60;102383.22;5012582;28;20736;-78
2022/11/14 03:25:26;;;;;;;16.27;11.60;;;;;;;6.77;57.95;102387.41;5025340;28;20385;-79
2022/11/14 03:27:51;;;;;;;16.83;12.35;;;;;;;6.78;58.25;102389.94;5016223;28;20404;-79
2022/11/14 03:30:17;;;;;;;15.37;11.50;;;;;;;6.61;58.23;102390.22;5014414;28;20396;-78
2022/11/14 03:32:42;;;;;;;15.20;12.33;;;;;;;6.30;58.81;102394.91;5013067;28;20856;-79
2022/11/14 03:35:09;;;;;;;16.57;13.20;;;;;;;6.08;59.67;102393.66;5017892;28;20392;-78
2022/11/14 03:37:34;;;;;;;15.07;12.38;;;;;;;5.99;59.80;102399.53;5027027;28;20534;-78
2022/11/14 03:40:00;;;;;;;16.37;12.80;;;;;;;6.07;59.21;102394.63;5030195;28;20406;-78
2022/11/14 03:42:25;;;;;;;17.57;14.33;;;;;;;5.98;59.53;102404.88;5030204;28;20422;-78
2022/11/14 03:44:51;;;;;;;24.52;13.48;;;;;;;5.98;59.34;102404.88;5016133;28;20386;-78
2022/11/14 03:47:16;;;;;;;20.90;13.75;;;;;;;5.91;59.51;102396.53;5028518;28;20894;-78
2022/11/14 03:49:43;;;;;;;30.07;13.47;;;;;;;5.99;59.84;102396.88;5025459;28;20396;-78
2022/11/14 03:52:10;;;;;;;22.80;13.48;;;;;;;5.98;60.02;102405.75;5030806;28;20940;-78
2022/11/14 03:54:36;;;;;;;25.80;13.52;;;;;;;6.00;59.87;102392.50;5027905;28;20415;-78
2022/11/14 03:57:01;;;;;;;20.38;13.50;;;;;;;6.10;59.60;102402.34;5020057;28;20453;-77
2022/11/14 03:59:27;;;;;;;18.97;14.30;;;;;;;6.12;59.09;102396.94;5023390;28;20451;-78
2022/11/14 04:01:52;;;;;;;17.63;13.77;;;;;;;6.15;59.02;102394.13;5016200;28;20865;-77
2022/11/14 04:04:18;;;;;;;20.80;14.27;;;;;;;6.15;59.65;102399.38;5016999;28;20392;-75
2022/11/14 04:06:43;;;;;;;16.45;13.68;;;;;;;6.17;59.59;102399.28;5026875;28;20717;-77
2022/11/14 04:09:09;;;;;;;24.37;20.53;;;;;;;6.25;59.07;102397.84;5017075;28;20404;-77
2022/11/14 04:11:34;;;;;;;20.87;17.03;;;;;;;6.30;58.86;102392.28;5023576;28;20388;-77
2022/11/14 04:14:01;;;;;;;16.55;13.85;;;;;;;6.34;59.19;102387.66;5025831;28;20863;-77
2022/11/14 04:16:26;;;;;;;32.93;29.73;;;;;;;6.41;58.78;102392.44;5020881;28;20471;-77
2022/11/14 04:18:51;;;;;;;20.73;17.60;;;;;;;6.50;58.76;102389.19;5023180;28;20384;-78
2022/11/14 04:21:17;;;;;;;19.17;15.80;;;;;;;6.50;58.55;102394.44;5018993;28;20458;-78
2022/11/14 04:23:42;;;;;;;17.38;15.45;;;;;;;6.57;58.66;102401.94;5016463;28;20392;-77
2022/11/14 04:26:08;;;;;;;17.67;13.83;;;;;;;6.56;58.65;102401.09;5017363;28;20388;-77
2022/11/14 04:28:33;;;;;;;18.43;13.90;;;;;;;6.61;58.52;102395.50;5017523;28;20757;-78
2022/11/14 04:30:59;;;;;;;20.13;15.43;;;;;;;6.61;58.69;102396.38;5017331;28;20432;-77
2022/11/14 04:33:25;;;;;;;18.07;16.10;;;;;;;6.68;58.22;102394.16;5016821;28;20382;-77
2022/11/14 04:35:50;;;;;;;19.27;16.05;;;;;;;6.74;57.98;102400.81;5014321;28;20387;-77
2022/11/14 04:38:16;;;;;;;19.20;15.97;;;;;;;6.68;58.62;102402.03;5015991;28;20467;-77
2022/11/14 04:40:50;;;;;;;24.27;16.27;;;;;;;6.79;58.59;102396.94;5025027;28;20382;-78
2022/11/14 04:43:17;;;;;;;19.13;14.90;;;;;;;6.85;58.19;102396.50;5019767;28;20396;-77
2022/11/14 04:45:42;;;;;;;22.23;15.30;;;;;;;6.94;58.18;102395.03;5016171;28;20392;-78
2022/11/14 04:48:08;;;;;;;39.47;35.40;;;;;;;7.03;58.33;102389.13;5017193;28;20406;-77
2022/11/14 04:50:33;;;;;;;28.10;17.27;;;;;;;7.06;58.51;102406.53;5019929;28;20691;-78
2022/11/14 04:52:59;;;;;;;37.47;27.60;;;;;;;7.07;58.78;102395.03;5017395;28;20376;-78
2022/11/14 04:55:24;;;;;;;45.38;35.08;;;;;;;7.18;59.11;102397.75;5020540;28;20394;-78
2022/11/14 04:57:55;;;;;;;36.27;18.40;;;;;;;7.20;59.22;102393.25;5020527;28;20380;-78
2022/11/14 05:00:20;;;;;;;25.73;18.35;;;;;;;7.25;59.39;102395.56;5021817;28;20384;-77
2022/11/14 05:02:46;;;;;;;27.38;19.10;;;;;;;7.29;59.51;102391.75;5020190;28;20414;-77
2022/11/14 05:05:11;;;;;;;33.92;19.52;;;;;;;7.30;59.69;102396.06;5020053;28;20388;-78
2022/11/14 05:07:37;;;;;;;23.70;15.87;;;;;;;7.31;59.94;102394.28;5020655;28;20399;-78
2022/11/14 05:10:03;;;;;;;25.47;13.30;;;;;;;7.28;60.27;102395.34;5019288;28;20434;-78
2022/11/14 05:12:28;;;;;;;18.03;12.70;;;;;;;7.27;60.47;102405.06;5022668;28;20398;-79
2022/11/14 05:14:54;;;;;;;30.73;13.03;;;;;;;7.31;60.40;102396.91;5019838;28;20825;-79
2022/11/14 05:17:19;;;;;;;30.23;12.80;;;;;;;7.33;60.32;102398.50;5023241;28;20384;-78
2022/11/14 05:19:45;;;;;;;21.98;13.00;;;;;;;7.39;60.33;102400.72;5015789;28;20739;-78
2022/11/14 05:22:10;;;;;;;19.17;13.63;;;;;;;7.44;60.45;102400.41;5018717;28;20404;-79
2022/11/14 05:24:36;;;;;;;21.17;13.13;;;;;;;7.49;60.33;102400.06;5020287;28;20475;-79
2022/11/14 05:27:01;;;;;;;17.13;12.57;;;;;;;7.50;60.27;102401.75;5019029;28;20407;-77
2022/11/14 05:29:27;;;;;;;27.20;13.40;;;;;;;7.51;60.15;102414.84;5032204;28;20405;-78
2022/11/14 05:31:52;;;;;;;26.23;14.23;;;;;;;7.41;60.38;102412.00;5016381;28;20403;-76
2022/11/14 05:34:18;;;;;;;24.63;14.77;;;;;;;7.42;60.68;102413.69;4957239;28;20419;-77
2022/11/14 05:36:43;;;;;;;26.30;14.40;;;;;;;7.45;60.64;102409.97;5004441;28;20421;-78
2022/11/14 05:39:09;;;;;;;30.03;14.07;;;;;;;7.58;59.96;102412.59;4990702;28;20474;-78
2022/11/14 05:41:36;;;;;;;32.40;14.57;;;;;;;7.64;60.31;102407.75;4999062;28;20492;-78
2022/11/14 05:44:03;;;;;;;24.38;13.65;;;;;;;7.61;60.56;102412.38;5002806;28;20429;-78
2022/11/14 05:46:29;;;;;;;25.42;14.20;;;;;;;7.66;60.46;102413.75;4995225;28;20449;-79
2022/11/14 05:48:55;;;;;;;32.50;14.68;;;;;;;7.69;60.50;102415.34;5000780;28;20413;-79
2022/11/14 05:51:20;;;;;;;27.20;14.10;;;;;;;7.68;60.60;102420.72;5006134;28;20461;-79
2022/11/14 05:53:46;;;;;;;27.17;14.18;;;;;;;7.68;60.43;102421.56;5015127;28;20394;-78
2022/11/14 05:56:12;;;;;;;24.70;13.97;;;;;;;7.71;60.63;102421.34;5000651;28;20394;-81
2022/11/14 05:58:38;;;;;;;30.83;16.13;;;;;;;7.75;60.50;102424.63;5005452;28;20390;-78
2022/11/14 06:01:05;;;;;;;31.60;14.80;;;;;;;7.73;60.76;102414.16;5001334;28;20401;-78
2022/11/14 06:03:35;;;;;;;33.25;14.77;;;;;;;7.72;60.62;102404.53;5002172;28;20423;-79
2022/11/14 06:06:02;;;;;;;25.27;13.38;;;;;;;7.77;60.80;102409.50;5001971;28;20385;-76
2022/11/14 06:08:29;;;;;;;24.65;13.95;;;;;;;7.79;60.67;102413.72;5018056;28;20461;-78
2022/11/14 06:10:54;;;;;;;41.92;15.82;;;;;;;7.88;60.52;102424.59;4999371;28;20798;-78
2022/11/14 06:13:22;;;;;;;31.40;14.73;;;;;;;7.74;60.97;102429.06;5001444;28;20444;-77
2022/11/14 06:15:48;;;;;;;28.25;14.95;;;;;;;7.72;61.45;102436.22;5000207;28;20426;-80
2022/11/14 06:18:13;;;;;;;26.67;15.70;;;;;;;7.83;60.87;102431.03;5012484;28;20523;-78
2022/11/14 06:20:38;;;;;;;28.10;16.60;;;;;;;7.92;61.06;102434.78;5011132;28;20404;-78
2022/11/14 06:23:04;;;;;;;27.77;15.05;;;;;;;7.95;61.02;102437.22;5000687;28;20389;-79
2022/11/14 06:25:30;;;;;;;26.30;15.25;;;;;;;8.02;60.96;102440.28;4998784;28;20389;-78
2022/11/14 06:27:57;;;;;;;34.43;17.97;;;;;;;7.87;61.01;102442.22;5001441;28;20401;-79
2022/11/14 06:30:23;;;;;;;36.60;20.70;;;;;;;7.69;61.31;102452.28;5002375;28;20391;-78
2022/11/14 06:32:49;;;;;;;45.03;23.70;;;;;;;7.65;61.79;102456.09;5002477;28;20413;-79
2022/11/14 06:35:14;;;;;;;47.40;24.07;;;;;;;7.54;61.70;102451.56;4992182;28;20421;-78
2022/11/14 06:37:40;;;;;;;41.97;26.87;;;;;;;7.45;62.46;102454.84;5003939;28;20370;-78
2022/11/14 06:40:06;;;;;;;40.43;24.60;;;;;;;7.40;62.46;102454.31;5006720;28;20464;-81
2022/11/14 06:42:31;;;;;;;36.13;23.55;;;;;;;7.35;62.87;102457.28;5003047;28;20402;-80
2022/11/14 06:44:57;;;;;;;36.83;22.93;;;;;;;7.21;62.51;102457.38;5001262;28;20461;-78
2022/11/14 06:47:22;;;;;;;44.50;24.23;;;;;;;7.29;62.74;102462.97;4999313;28;20405;-79
2022/11/14 06:49:50;;;;;;;37.75;24.45;;;;;;;7.43;62.56;102470.78;5001112;28;20415;-79
2022/11/14 06:52:15;;;;;;;38.33;21.10;;;;;;;7.39;62.55;102464.03;5002704;28;20396;-79
2022/11/14 06:54:41;;;;;;;38.13;21.48;;;;;;;7.39;62.21;102465.84;5002923;28;20377;-79
2022/11/14 06:57:06;;;;;;;34.30;23.50;;;;;;;7.32;62.83;102470.69;5000263;28;20402;-78
2022/11/14 06:59:32;;;;;;;43.83;30.83;;;;;;;7.35;62.84;102475.75;4999372;28;20744;-81
2022/11/14 07:01:58;;;;;;;39.28;25.00;;;;;;;7.39;62.80;102461.38;4999969;28;20413;-80
2022/11/14 07:04:23;;;;;;;29.30;18.80;;;;;;;7.33;63.02;102463.59;5000991;28;20412;-79
2022/11/14 07:06:49;;;;;;;44.33;28.50;;;;;;;7.38;63.12;102469.41;5000699;28;20880;-80
2022/11/14 07:09:14;;;;;;;30.67;20.77;;;;;;;7.38;62.79;102465.00;5015393;28;20428;-78
2022/11/14 07:11:39;;;;;;;33.67;20.58;;;;;;;7.43;62.79;102454.09;5002926;28;20759;-79
2022/11/14 07:14:05;;;;;;;37.28;20.08;;;;;;;7.49;62.87;102458.97;5003858;28;20390;-79
2022/11/14 07:16:35;;;;;;;43.53;17.77;;;;;;;7.42;63.13;102457.72;5000817;28;20449;-80
2022/11/14 07:19:02;;;;;;;36.53;17.77;;;;;;;7.35;63.25;102459.09;5002428;28;20425;-79
2022/11/14 07:21:30;;;;;;;36.85;17.58;;;;;;;7.39;63.57;102461.38;4999742;28;20378;-77
2022/11/14 07:23:56;;;;;;;40.63;17.17;;;;;;;7.44;63.72;102466.38;5005321;28;20393;-79
2022/11/14 07:26:22;;;;;;;36.50;17.83;;;;;;;7.57;63.73;102461.91;5001587;28;20825;-80
2022/11/14 07:28:48;;;;;;;33.55;18.45;;;;;;;7.64;63.77;102473.72;5002011;28;20413;-80
2022/11/14 07:31:16;;;;;;;30.97;18.77;;;;;;;7.52;63.56;102465.81;4967437;28;20812;-79
2022/11/14 07:33:43;;;;;;;45.95;19.92;;;;;;;7.51;63.87;102462.34;5027522;28;20808;-78
2022/11/14 07:36:09;;;;;;;38.35;20.08;;;;;;;7.52;63.83;102469.28;5007258;28;20740;-80
2022/11/14 07:38:38;;;;;;;47.13;22.80;;;;;;;7.35;64.36;102467.00;5024913;28;20438;-80
2022/11/14 07:41:08;;;;;;;48.10;24.30;;;;;;;7.27;64.74;102470.13;5024176;28;20880;-79
2022/11/14 07:43:34;;;;;;;52.00;25.77;;;;;;;7.28;64.72;102463.94;5024282;28;20399;-80
2022/11/14 07:46:01;;;;;;;55.00;23.15;;;;;;;7.32;64.94;102460.13;5026123;28;20384;-79
2022/11/14 07:48:30;;;;;;;38.35;23.23;;;;;;;7.46;65.52;102462.66;5026329;28;20784;-79
2022/11/14 07:51:00;;;;;;;47.13;23.98;;;;;;;7.64;65.11;102457.06;5038065;28;20412;-81
2022/11/14 07:53:28;;;;;;;45.88;20.65;;;;;;;7.61;64.97;102460.72;5024789;28;20383;-79
2022/11/14 07:55:54;;;;;;;42.57;19.87;;;;;;;7.70;65.40;102461.06;5028143;28;20383;-81
2022/11/14 07:58:20;;;;;;;51.15;18.23;;;;;;;7.73;64.83;102466.13;5042060;28;20376;-79
2022/11/14 08:00:45;;;;;;;41.13;18.38;;;;;;;7.80;65.02;102470.03;5026420;28;20387;-78
2022/11/14 08:03:11;;;;;;;40.92;18.98;;;;;;;7.96;64.83;102459.19;5022063;28;20404;-79
2022/11/14 08:05:36;;;;;;;38.53;15.37;;;;;;;7.96;64.70;102453.91;5026637;28;20388;-79
2022/11/14 08:08:03;;;;;;;35.30;17.80;;;;;;;8.01;65.21;102465.84;5024650;28;20888;-80
2022/11/14 08:10:29;;;;;;;40.97;16.17;;;;;;;7.95;64.76;102468.06;5023715;28;20973;-79
2022/11/14 08:13:03;;;;;;;38.97;17.47;;;;;;;7.94;65.23;102463.72;5022466;28;20431;-80
2022/11/14 08:15:29;;;;;;;37.80;18.45;;;;;;;8.01;65.43;102460.56;5025058;28;20384;-80
2022/11/14 08:17:59;;;;;;;37.58;16.55;;;;;;;7.99;65.34;102459.81;5023130;28;20733;-79
2022/11/14 08:20:26;;;;;;;36.58;18.17;;;;;;;7.94;65.89;102463.72;5026530;28;20384;-80
2022/11/14 08:22:53;;;;;;;33.88;16.73;;;;;;;7.97;65.62;102460.88;5025036;28;20395;-80
2022/11/14 08:25:19;;;;;;;38.78;17.67;;;;;;;8.04;65.51;102465.59;5004170;28;20453;-79
2022/11/14 08:27:44;;;;;;;36.57;19.30;;;;;;;8.07;65.67;102476.91;5018313;28;20431;-79
2022/11/14 08:30:10;;;;;;;43.97;20.03;;;;;;;7.93;65.03;102473.47;5024805;28;20402;-78
2022/11/14 08:32:36;;;;;;;41.08;20.67;;;;;;;7.91;65.50;102479.81;5026196;28;20445;-79
2022/11/14 08:35:01;;;;;;;41.43;17.40;;;;;;;7.91;65.97;102485.09;5028253;28;20404;-80
2022/11/14 08:37:27;;;;;;;41.17;18.95;;;;;;;8.01;66.12;102486.97;5024557;28;20400;-79
2022/11/14 08:39:52;;;;;;;49.37;19.13;;;;;;;8.03;65.73;102481.56;5023745;28;20384;-79
2022/11/14 08:42:18;;;;;;;54.00;19.00;;;;;;;8.06;66.15;102476.06;5031306;28;20448;-80
2022/11/14 08:44:43;;;;;;;56.10;19.10;;;;;;;8.05;65.73;102484.97;5027337;28;20383;-79
2022/11/14 08:47:09;;;;;;;46.97;18.17;;;;;;;8.05;65.94;102477.03;5021787;28;20412;-79
2022/11/14 08:49:34;;;;;;;55.60;18.27;;;;;;;8.15;65.98;102478.03;5034477;28;20386;-80
2022/11/14 08:52:00;;;;;;;59.28;21.58;;;;;;;8.29;65.83;102486.78;5018788;28;20385;-78
2022/11/14 08:54:26;;;;;;;45.97;19.73;;;;;;;8.35;65.17;102487.16;5028664;28;20388;-79
2022/11/14 08:56:52;;;;;;;53.45;18.45;;;;;;;8.26;65.36;102490.47;5019626;28;20391;-79
2022/11/14 08:59:17;;;;;;;46.57;19.17;;;;;;;8.27;65.38;102489.53;5023601;28;20487;-79
2022/11/14 09:01:43;;;;;;;53.10;19.80;;;;;;;8.36;65.67;102485.38;5018360;28;20771;-79
2022/11/14 09:04:08;;;;;;;37.63;19.37;;;;;;;8.25;65.17;102486.16;5029134;28;20411;-79
2022/11/14 09:06:34;;;;;;;42.70;18.80;;;;;;;8.23;64.93;102477.50;5041216;28;20411;-79
2022/11/14 09:08:59;;;;;;;58.00;19.17;;;;;;;8.36;64.95;102480.09;5022362;28;20955;-79
2022/11/14 09:11:24;;;;;;;40.97;18.40;;;;;;;8.31;65.44;102483.06;5024100;28;20455;-78
2022/11/14 09:13:50;;;;;;;41.03;19.40;;;;;;;8.36;65.02;102469.53;5023240;28;20395;-78
2022/11/14 09:16:16;;;;;;;48.67;20.10;;;;;;;8.62;64.89;102475.56;5023149;28;20391;-80
2022/11/14 09:18:41;;;;;;;37.83;20.97;;;;;;;8.78;64.51;102475.25;5024668;28;20391;-79
2022/11/14 09:21:08;;;;;;;46.17;19.07;;;;;;;8.83;64.43;102482.88;5029899;28;20391;-79
2022/11/14 09:23:34;;;;;;;36.22;19.35;;;;;;;8.86;64.41;102467.63;5026652;28;20380;-79
2022/11/14 09:26:28;;;;;;;29.08;18.30;;;;;;;8.94;64.33;102464.38;5022708;28;20389;-77
2022/11/14 09:28:54;;;;;;;34.70;16.75;;;;;;;8.90;63.59;102450.53;5024554;28;20420;-80
2022/11/14 09:31:20;;;;;;;35.67;18.63;;;;;;;8.93;64.17;102450.31;5023874;28;20894;-79
2022/11/14 09:33:45;;;;;;;34.47;18.27;;;;;;;8.95;64.04;102453.69;5026159;28;20864;-79
2022/11/14 09:36:15;;;;;;;40.57;16.90;;;;;;;8.92;63.83;102439.84;5023161;28;20387;-80
2022/11/14 09:38:43;;;;;;;30.75;17.30;;;;;;;8.93;64.06;102450.31;5026324;28;20398;-79
2022/11/14 09:41:49;;;;;;;32.50;19.00;;;;;;;8.86;64.22;102446.47;5024264;28;20417;-78
2022/11/14 09:44:25;;;;;;;32.83;18.27;;;;;;;8.88;64.23;102454.28;5024052;28;20888;-79
2022/11/14 09:47:02;;;;;;;42.50;18.58;;;;;;;8.87;63.64;102450.78;5032297;28;20425;-80
2022/11/14 09:49:44;;;;;;;36.65;18.92;;;;;;;8.89;63.39;102448.84;5032964;28;20380;-79
2022/11/14 09:52:43;;;;;;;37.47;19.52;;;;;;;8.85;63.73;102451.84;5012495;28;20394;-79
2022/11/14 09:55:18;;;;;;;38.53;20.48;;;;;;;8.85;63.46;102455.34;5025258;28;20376;-79
2022/11/14 09:57:44;;;;;;;46.40;20.90;;;;;;;8.92;64.22;102451.25;5020262;28;20450;-78
2022/11/14 10:00:18;;;;;;;38.15;20.45;;;;;;;8.91;63.43;102446.09;5020597;28;20404;-79
2022/11/14 10:03:08;;;;;;;34.88;19.77;;;;;;;9.01;63.15;102456.84;5019976;28;20408;-78
2022/11/14 10:06:12;;;;;;;36.40;19.45;;;;;;;9.05;63.34;102455.63;5030993;28;20400;-80
2022/11/14 10:08:53;;;;;;;33.97;19.93;;;;;;;9.10;63.15;102456.97;5025061;28;20400;-78
2022/11/14 10:11:21;;;;;;;35.00;19.40;;;;;;;9.14;62.87;102449.63;5028526;28;20395;-80
2022/11/14 10:14:05;;;;;;;44.97;18.35;;;;;;;9.03;62.70;102452.25;5025090;28;20446;-79
2022/11/14 10:16:33;;;;;;;33.78;18.25;;;;;;;8.92;63.01;102453.06;5022221;28;20403;-79
2022/11/14 10:19:08;;;;;;;39.30;19.20;;;;;;;8.91;62.88;102446.09;5021855;28;20381;-78
2022/11/14 10:21:52;;;;;;;34.38;19.70;;;;;;;9.04;62.96;102451.28;5021418;28;20384;-81
2022/11/14 10:24:20;;;;;;;33.80;20.23;;;;;;;9.02;62.61;102443.50;5022303;28;20807;-79
2022/11/14 10:27:01;;;;;;;37.08;20.30;;;;;;;9.10;62.83;102446.38;5004631;28;20381;-79
2022/11/14 10:29:30;;;;;;;41.45;19.23;;;;;;;8.99;62.88;102441.06;5019520;28;20460;-80
2022/11/14 10:31:58;;;;;;;36.60;19.08;;;;;;;8.93;62.81;102439.75;5023033;28;20376;-79
2022/11/14 10:34:32;;;;;;;35.70;19.60;;;;;;;9.05;62.87;102437.13;5042995;28;20392;-80
2022/11/14 10:37:40;;;;;;;41.17;21.10;;;;;;;9.08;62.46;102434.25;5025228;28;20379;-78
2022/11/14 10:40:28;;;;;;;39.00;19.95;;;;;;;9.01;62.84;102433.03;4985938;28;20969;-79
2022/11/14 10:42:59;;;;;;;35.17;18.77;;;;;;;9.02;62.98;102426.75;4966822;28;20571;-80
2022/11/14 10:45:56;;;;;;;34.15;18.88;;;;;;;9.11;62.70;102434.84;5004406;28;20396;-79
2022/11/14 10:48:38;;;;;;;56.30;30.65;;;;;;;9.04;62.53;102423.06;5023886;28;20483;-80
2022/11/14 10:51:12;;;;;;;51.10;30.40;;;;;;;9.00;62.40;102424.22;5038899;28;20415;-80
2022/11/14 10:54:11;;;;;;;35.65;21.05;;;;;;;8.97;63.02;102425.31;5024684;28;20384;-80
2022/11/14 10:56:56;;;;;;;31.92;19.88;;;;;;;9.08;62.80;102415.72;5023943;28;20376;-80
2022/11/14 10:59:22;;;;;;;26.88;17.80;;;;;;;9.02;62.30;102410.88;5023856;28;20424;-78
2022/11/14 11:01:52;;;;;;;36.35;21.30;;;;;;;9.07;62.32;102406.09;5023474;28;20435;-80
2022/11/14 11:04:31;;;;;;;27.65;18.05;;;;;;;9.08;62.01;102405.97;5028923;28;20472;-79
2022/11/14 11:11:28;;;;;;;28.98;18.67;;;;;;;9.15;62.05;102401.91;5024407;28;20411;-78
2022/11/14 11:12:48;;;;;;;26.00;17.88;;;;;;;9.28;61.95;102399.13;5027619;28;20407;-79
2022/11/14 11:15:25;;;;;;;28.52;18.13;;;;;;;9.34;61.29;102389.88;5026231;28;20387;-81
2022/11/14 11:17:53;;;;;;;28.40;18.25;;;;;;;9.27;61.55;102399.25;5016159;28;20864;-82
2022/11/14 11:20:32;;;;;;;28.50;18.63;;;;;;;9.26;61.72;102389.63;5030018;28;20451;-80
2022/11/14 11:23:25;;;;;;;28.17;18.38;;;;;;;9.32;61.94;102384.69;5030486;28;20372;-78
2022/11/14 11:26:04;;;;;;;29.05;20.15;;;;;;;9.29;62.02;102378.78;5023055;28;20403;-77